sensor_id;sensor_type;location;lat;lon;timestamp;temperature;humidity
4376;DHT22;2202;50.866;12.750;2023-08-30T00:01:38;12.80;98.60
4376;DHT22;2202;50.866;12.750;2023-08-30T00:04:05;12.80;98.50
4376;DHT22;2202;50.866;12.750;2023-08-30T00:06:32;12.80;98.50
4376;DHT22;2202;50.866;12.750;2023-08-30T00:08:58;12.80;98.50
4376;DHT22;2202;50.866;12.750;2023-08-30T00:11:27;12.60;98.80
4376;DHT22;2202;50.866;12.750;2023-08-30T00:14:02;12.60;99.30
4376;DHT22;2202;50.866;12.750;2023-08-30T00:16:29;12.70;99.20
4376;DHT22;2202;50.866;12.750;2023-08-30T00:18:55;12.80;99.00
4376;DHT22;2202;50.866;12.750;2023-08-30T00:21:22;12.80;98.80
4376;DHT22;2202;50.866;12.750;2023-08-30T00:23:49;12.80;98.80
4376;DHT22;2202;50.866;12.750;2023-08-30T00:26:16;12.80;98.70
4376;DHT22;2202;50.866;12.750;2023-08-30T00:28:44;12.80;98.90
4376;DHT22;2202;50.866;12.750;2023-08-30T00:31:11;12.80;98.70
4376;DHT22;2202;50.866;12.750;2023-08-30T00:33:38;12.80;98.60
4376;DHT22;2202;50.866;12.750;2023-08-30T00:36:05;12.80;98.80
4376;DHT22;2202;50.866;12.750;2023-08-30T00:38:33;12.70;98.80
4376;DHT22;2202;50.866;12.750;2023-08-30T00:41:00;12.60;99.20
4376;DHT22;2202;50.866;12.750;2023-08-30T00:43:27;12.70;99.10
4376;DHT22;2202;50.866;12.750;2023-08-30T00:45:55;12.60;99.30
4376;DHT22;2202;50.866;12.750;2023-08-30T00:48:23;12.60;99.60
4376;DHT22;2202;50.866;12.750;2023-08-30T00:50:49;12.70;99.60
4376;DHT22;2202;50.866;12.750;2023-08-30T00:53:17;12.80;99.30
4376;DHT22;2202;50.866;12.750;2023-08-30T00:55:44;12.80;99.00
4376;DHT22;2202;50.866;12.750;2023-08-30T00:58:11;12.90;98.80
4376;DHT22;2202;50.866;12.750;2023-08-30T01:00:38;12.80;98.70
4376;DHT22;2202;50.866;12.750;2023-08-30T01:03:07;12.80;98.70
4376;DHT22;2202;50.866;12.750;2023-08-30T01:05:34;12.90;98.60
4376;DHT22;2202;50.866;12.750;2023-08-30T01:08:01;12.80;98.40
4376;DHT22;2202;50.866;12.750;2023-08-30T01:10:38;12.70;98.80
4376;DHT22;2202;50.866;12.750;2023-08-30T01:13:09;12.80;98.70
4376;DHT22;2202;50.866;12.750;2023-08-30T01:15:39;12.80;98.50
4376;DHT22;2202;50.866;12.750;2023-08-30T01:18:09;12.70;98.70
4376;DHT22;2202;50.866;12.750;2023-08-30T01:20:39;12.60;98.80
4376;DHT22;2202;50.866;12.750;2023-08-30T01:23:16;12.60;98.80
4376;DHT22;2202;50.866;12.750;2023-08-30T01:25:55;12.60;98.80
4376;DHT22;2202;50.866;12.750;2023-08-30T01:28:28;12.70;98.70
4376;DHT22;2202;50.866;12.750;2023-08-30T01:30:58;12.70;98.70
4376;DHT22;2202;50.866;12.750;2023-08-30T01:33:25;12.70;98.50
4376;DHT22;2202;50.866;12.750;2023-08-30T01:35:53;12.50;98.80
4376;DHT22;2202;50.866;12.750;2023-08-30T01:38:21;12.50;99.10
4376;DHT22;2202;50.866;12.750;2023-08-30T01:40:50;12.40;99.20
4376;DHT22;2202;50.866;12.750;2023-08-30T01:43:18;12.40;99.50
4376;DHT22;2202;50.866;12.750;2023-08-30T01:45:47;12.40;99.60
4376;DHT22;2202;50.866;12.750;2023-08-30T01:48:15;12.50;99.60
4376;DHT22;2202;50.866;12.750;2023-08-30T01:50:44;12.50;99.30
4376;DHT22;2202;50.866;12.750;2023-08-30T01:53:13;12.50;99.30
4376;DHT22;2202;50.866;12.750;2023-08-30T01:55:40;12.50;99.20
4376;DHT22;2202;50.866;12.750;2023-08-30T01:58:08;12.60;99.20
4376;DHT22;2202;50.866;12.750;2023-08-30T02:00:35;12.70;99.00
4376;DHT22;2202;50.866;12.750;2023-08-30T02:03:09;12.80;98.70
4376;DHT22;2202;50.866;12.750;2023-08-30T02:05:39;12.80;98.60
4376;DHT22;2202;50.866;12.750;2023-08-30T02:08:14;12.80;98.60
4376;DHT22;2202;50.866;12.750;2023-08-30T02:10:47;12.80;98.50
4376;DHT22;2202;50.866;12.750;2023-08-30T02:13:16;12.80;98.20
4376;DHT22;2202;50.866;12.750;2023-08-30T02:15:43;12.80;98.50
4376;DHT22;2202;50.866;12.750;2023-08-30T02:18:13;12.80;98.30
4376;DHT22;2202;50.866;12.750;2023-08-30T02:20:40;12.80;98.50
4376;DHT22;2202;50.866;12.750;2023-08-30T02:23:09;12.80;98.50
4376;DHT22;2202;50.866;12.750;2023-08-30T02:25:36;12.80;98.50
4376;DHT22;2202;50.866;12.750;2023-08-30T02:28:03;12.90;98.60
4376;DHT22;2202;50.866;12.750;2023-08-30T02:30:30;12.90;98.60
4376;DHT22;2202;50.866;12.750;2023-08-30T02:32:57;13.00;98.00
4376;DHT22;2202;50.866;12.750;2023-08-30T02:35:25;12.90;97.90
4376;DHT22;2202;50.866;12.750;2023-08-30T02:37:52;12.80;97.80
4376;DHT22;2202;50.866;12.750;2023-08-30T02:40:19;12.70;98.30
4376;DHT22;2202;50.866;12.750;2023-08-30T02:42:46;12.60;98.60
4376;DHT22;2202;50.866;12.750;2023-08-30T02:45:12;12.50;99.00
4376;DHT22;2202;50.866;12.750;2023-08-30T02:47:39;12.70;99.00
4376;DHT22;2202;50.866;12.750;2023-08-30T02:50:07;12.80;98.80
4376;DHT22;2202;50.866;12.750;2023-08-30T02:52:35;12.80;98.50
4376;DHT22;2202;50.866;12.750;2023-08-30T02:55:02;12.90;98.40
4376;DHT22;2202;50.866;12.750;2023-08-30T02:57:28;12.80;98.50
4376;DHT22;2202;50.866;12.750;2023-08-30T02:59:55;12.80;98.70
4376;DHT22;2202;50.866;12.750;2023-08-30T03:02:22;12.80;98.80
4376;DHT22;2202;50.866;12.750;2023-08-30T03:04:49;12.70;98.70
4376;DHT22;2202;50.866;12.750;2023-08-30T03:07:16;12.70;99.00
4376;DHT22;2202;50.866;12.750;2023-08-30T03:09:44;12.80;99.00
4376;DHT22;2202;50.866;12.750;2023-08-30T03:12:11;12.80;98.90
4376;DHT22;2202;50.866;12.750;2023-08-30T03:14:38;12.80;98.80
4376;DHT22;2202;50.866;12.750;2023-08-30T03:17:04;12.80;99.00
4376;DHT22;2202;50.866;12.750;2023-08-30T03:19:31;12.80;99.00
4376;DHT22;2202;50.866;12.750;2023-08-30T03:21:58;12.70;99.10
4376;DHT22;2202;50.866;12.750;2023-08-30T03:24:25;12.70;99.40
4376;DHT22;2202;50.866;12.750;2023-08-30T03:26:53;12.70;99.30
4376;DHT22;2202;50.866;12.750;2023-08-30T03:29:20;12.60;99.70
4376;DHT22;2202;50.866;12.750;2023-08-30T03:31:47;12.70;99.70
4376;DHT22;2202;50.866;12.750;2023-08-30T03:34:14;12.70;99.70
4376;DHT22;2202;50.866;12.750;2023-08-30T03:36:41;12.70;99.50
4376;DHT22;2202;50.866;12.750;2023-08-30T03:39:09;12.70;99.40
4376;DHT22;2202;50.866;12.750;2023-08-30T03:41:36;12.70;99.30
4376;DHT22;2202;50.866;12.750;2023-08-30T03:44:05;12.60;99.60
4376;DHT22;2202;50.866;12.750;2023-08-30T03:46:32;12.60;99.90
4376;DHT22;2202;50.866;12.750;2023-08-30T03:48:59;12.60;99.90
4376;DHT22;2202;50.866;12.750;2023-08-30T03:51:26;12.60;99.90
4376;DHT22;2202;50.866;12.750;2023-08-30T03:53:52;12.50;99.90
4376;DHT22;2202;50.866;12.750;2023-08-30T03:56:21;12.50;99.90
4376;DHT22;2202;50.866;12.750;2023-08-30T03:58:48;12.60;99.90
4376;DHT22;2202;50.866;12.750;2023-08-30T04:01:16;12.60;99.90
4376;DHT22;2202;50.866;12.750;2023-08-30T04:03:43;12.60;99.90
4376;DHT22;2202;50.866;12.750;2023-08-30T04:06:10;12.60;99.90
4376;DHT22;2202;50.866;12.750;2023-08-30T04:08:37;12.60;99.90
4376;DHT22;2202;50.866;12.750;2023-08-30T04:11:03;12.70;99.80
4376;DHT22;2202;50.866;12.750;2023-08-30T04:13:30;12.60;99.90
4376;DHT22;2202;50.866;12.750;2023-08-30T04:15:57;12.70;99.90
4376;DHT22;2202;50.866;12.750;2023-08-30T04:18:26;12.70;99.80
4376;DHT22;2202;50.866;12.750;2023-08-30T04:20:53;12.70;99.60
4376;DHT22;2202;50.866;12.750;2023-08-30T04:23:20;12.70;99.70
4376;DHT22;2202;50.866;12.750;2023-08-30T04:25:46;12.70;99.70
4376;DHT22;2202;50.866;12.750;2023-08-30T04:28:13;12.70;99.60
4376;DHT22;2202;50.866;12.750;2023-08-30T04:30:40;12.70;99.80
4376;DHT22;2202;50.866;12.750;2023-08-30T04:33:07;12.70;99.70
4376;DHT22;2202;50.866;12.750;2023-08-30T04:35:35;12.70;99.60
4376;DHT22;2202;50.866;12.750;2023-08-30T04:38:02;12.70;99.50
4376;DHT22;2202;50.866;12.750;2023-08-30T04:40:29;12.70;99.70
4376;DHT22;2202;50.866;12.750;2023-08-30T04:42:57;12.70;99.50
4376;DHT22;2202;50.866;12.750;2023-08-30T04:45:24;12.70;99.70
4376;DHT22;2202;50.866;12.750;2023-08-30T04:47:51;12.60;99.70
4376;DHT22;2202;50.866;12.750;2023-08-30T04:50:18;12.60;99.80
4376;DHT22;2202;50.866;12.750;2023-08-30T04:52:46;12.60;99.80
4376;DHT22;2202;50.866;12.750;2023-08-30T04:55:13;12.60;99.80
4376;DHT22;2202;50.866;12.750;2023-08-30T04:57:40;12.70;99.80
4376;DHT22;2202;50.866;12.750;2023-08-30T05:00:11;12.70;99.70
4376;DHT22;2202;50.866;12.750;2023-08-30T05:02:38;12.70;99.70
4376;DHT22;2202;50.866;12.750;2023-08-30T05:05:05;12.70;99.60
4376;DHT22;2202;50.866;12.750;2023-08-30T05:07:32;12.70;99.40
4376;DHT22;2202;50.866;12.750;2023-08-30T05:10:01;12.80;99.30
4376;DHT22;2202;50.866;12.750;2023-08-30T05:12:28;12.80;99.30
4376;DHT22;2202;50.866;12.750;2023-08-30T05:14:55;12.80;99.20
4376;DHT22;2202;50.866;12.750;2023-08-30T05:17:23;12.80;99.20
4376;DHT22;2202;50.866;12.750;2023-08-30T05:19:50;12.70;99.10
4376;DHT22;2202;50.866;12.750;2023-08-30T05:22:17;12.70;99.30
4376;DHT22;2202;50.866;12.750;2023-08-30T05:24:44;12.70;99.30
4376;DHT22;2202;50.866;12.750;2023-08-30T05:27:12;12.80;99.30
4376;DHT22;2202;50.866;12.750;2023-08-30T05:29:40;12.80;99.10
4376;DHT22;2202;50.866;12.750;2023-08-30T05:32:07;12.80;99.00
4376;DHT22;2202;50.866;12.750;2023-08-30T05:34:34;12.90;99.20
4376;DHT22;2202;50.866;12.750;2023-08-30T05:37:00;13.00;99.10
4376;DHT22;2202;50.866;12.750;2023-08-30T05:39:28;13.00;98.90
4376;DHT22;2202;50.866;12.750;2023-08-30T05:41:55;13.00;98.80
4376;DHT22;2202;50.866;12.750;2023-08-30T05:44:23;13.00;98.60
4376;DHT22;2202;50.866;12.750;2023-08-30T05:46:50;13.00;98.60
4376;DHT22;2202;50.866;12.750;2023-08-30T05:49:16;13.00;98.40
4376;DHT22;2202;50.866;12.750;2023-08-30T05:51:43;13.10;98.30
4376;DHT22;2202;50.866;12.750;2023-08-30T05:54:10;13.10;98.10
4376;DHT22;2202;50.866;12.750;2023-08-30T05:56:37;13.10;98.10
4376;DHT22;2202;50.866;12.750;2023-08-30T05:59:04;13.10;98.20
4376;DHT22;2202;50.866;12.750;2023-08-30T06:01:32;13.10;98.10
4376;DHT22;2202;50.866;12.750;2023-08-30T06:03:59;13.10;98.30
4376;DHT22;2202;50.866;12.750;2023-08-30T06:06:25;13.00;98.20
4376;DHT22;2202;50.866;12.750;2023-08-30T06:08:53;13.00;98.60
4376;DHT22;2202;50.866;12.750;2023-08-30T06:11:20;13.00;98.60
4376;DHT22;2202;50.866;12.750;2023-08-30T06:13:47;13.10;98.60
4376;DHT22;2202;50.866;12.750;2023-08-30T06:16:13;13.20;98.20
4376;DHT22;2202;50.866;12.750;2023-08-30T06:18:42;13.30;98.00
4376;DHT22;2202;50.866;12.750;2023-08-30T06:21:08;13.30;97.80
4376;DHT22;2202;50.866;12.750;2023-08-30T06:23:38;13.40;97.70
4376;DHT22;2202;50.866;12.750;2023-08-30T06:26:04;13.30;97.50
4376;DHT22;2202;50.866;12.750;2023-08-30T06:28:31;13.30;97.70
4376;DHT22;2202;50.866;12.750;2023-08-30T06:30:58;13.20;98.00
4376;DHT22;2202;50.866;12.750;2023-08-30T06:33:25;13.30;98.00
4376;DHT22;2202;50.866;12.750;2023-08-30T06:35:53;13.40;97.80
4376;DHT22;2202;50.866;12.750;2023-08-30T06:38:21;13.50;97.60
4376;DHT22;2202;50.866;12.750;2023-08-30T06:40:48;13.60;97.40
4376;DHT22;2202;50.866;12.750;2023-08-30T06:43:15;13.70;96.90
4376;DHT22;2202;50.866;12.750;2023-08-30T06:45:43;13.80;96.80
4376;DHT22;2202;50.866;12.750;2023-08-30T06:48:11;13.60;96.70
4376;DHT22;2202;50.866;12.750;2023-08-30T06:50:38;13.70;96.50
4376;DHT22;2202;50.866;12.750;2023-08-30T06:53:06;13.80;96.30
4376;DHT22;2202;50.866;12.750;2023-08-30T06:55:34;13.60;96.10
4376;DHT22;2202;50.866;12.750;2023-08-30T06:58:02;13.60;96.30
4376;DHT22;2202;50.866;12.750;2023-08-30T07:00:29;13.70;96.90
4376;DHT22;2202;50.866;12.750;2023-08-30T07:02:56;13.80;96.80
4376;DHT22;2202;50.866;12.750;2023-08-30T07:05:23;13.80;96.40
4376;DHT22;2202;50.866;12.750;2023-08-30T07:07:50;13.90;95.60
4376;DHT22;2202;50.866;12.750;2023-08-30T07:10:18;14.10;95.70
4376;DHT22;2202;50.866;12.750;2023-08-30T07:12:45;14.20;95.20
4376;DHT22;2202;50.866;12.750;2023-08-30T07:15:14;14.30;94.60
4376;DHT22;2202;50.866;12.750;2023-08-30T07:17:42;14.50;94.50
4376;DHT22;2202;50.866;12.750;2023-08-30T07:20:10;14.60;94.00
4376;DHT22;2202;50.866;12.750;2023-08-30T07:22:37;14.70;93.60
4376;DHT22;2202;50.866;12.750;2023-08-30T07:25:04;14.80;93.80
4376;DHT22;2202;50.866;12.750;2023-08-30T07:27:32;14.80;93.50
4376;DHT22;2202;50.866;12.750;2023-08-30T07:29:59;15.00;93.40
4376;DHT22;2202;50.866;12.750;2023-08-30T07:32:26;14.90;92.50
4376;DHT22;2202;50.866;12.750;2023-08-30T07:34:53;14.90;92.70
4376;DHT22;2202;50.866;12.750;2023-08-30T07:37:20;14.90;92.50
4376;DHT22;2202;50.866;12.750;2023-08-30T07:39:47;14.90;92.20
4376;DHT22;2202;50.866;12.750;2023-08-30T07:42:14;15.00;91.10
4376;DHT22;2202;50.866;12.750;2023-08-30T07:44:42;15.00;91.70
4376;DHT22;2202;50.866;12.750;2023-08-30T07:47:09;15.20;92.70
4376;DHT22;2202;50.866;12.750;2023-08-30T07:49:36;15.40;92.40
4376;DHT22;2202;50.866;12.750;2023-08-30T07:52:03;15.70;90.60
4376;DHT22;2202;50.866;12.750;2023-08-30T07:54:31;15.90;89.60
4376;DHT22;2202;50.866;12.750;2023-08-30T07:56:59;16.20;89.80
4376;DHT22;2202;50.866;12.750;2023-08-30T07:59:26;16.40;87.80
4376;DHT22;2202;50.866;12.750;2023-08-30T08:01:54;16.70;84.80
4376;DHT22;2202;50.866;12.750;2023-08-30T08:04:21;16.90;87.80
4376;DHT22;2202;50.866;12.750;2023-08-30T08:06:48;17.30;84.20
4376;DHT22;2202;50.866;12.750;2023-08-30T08:09:15;17.60;82.80
4376;DHT22;2202;50.866;12.750;2023-08-30T08:11:42;17.90;80.60
4376;DHT22;2202;50.866;12.750;2023-08-30T08:14:09;17.80;80.00
4376;DHT22;2202;50.866;12.750;2023-08-30T08:16:37;17.70;81.20
4376;DHT22;2202;50.866;12.750;2023-08-30T08:19:05;18.10;82.60
4376;DHT22;2202;50.866;12.750;2023-08-30T08:21:32;18.20;73.40
4376;DHT22;2202;50.866;12.750;2023-08-30T08:23:59;17.90;76.20
4376;DHT22;2202;50.866;12.750;2023-08-30T08:26:26;18.00;76.00
4376;DHT22;2202;50.866;12.750;2023-08-30T08:28:54;18.20;74.40
4376;DHT22;2202;50.866;12.750;2023-08-30T08:31:21;18.50;79.60
4376;DHT22;2202;50.866;12.750;2023-08-30T08:33:51;18.80;73.80
4376;DHT22;2202;50.866;12.750;2023-08-30T08:36:19;18.50;70.80
4376;DHT22;2202;50.866;12.750;2023-08-30T08:38:46;18.40;78.60
4376;DHT22;2202;50.866;12.750;2023-08-30T08:41:14;18.50;73.40
4376;DHT22;2202;50.866;12.750;2023-08-30T08:43:42;18.40;76.00
4376;DHT22;2202;50.866;12.750;2023-08-30T08:46:11;18.20;77.80
4376;DHT22;2202;50.866;12.750;2023-08-30T08:48:41;18.60;80.80
4376;DHT22;2202;50.866;12.750;2023-08-30T08:51:10;18.80;74.20
4376;DHT22;2202;50.866;12.750;2023-08-30T08:53:38;18.90;74.80
4376;DHT22;2202;50.866;12.750;2023-08-30T08:56:06;18.80;78.60
4376;DHT22;2202;50.866;12.750;2023-08-30T08:58:35;18.90;76.60
4376;DHT22;2202;50.866;12.750;2023-08-30T09:01:04;19.10;68.40
4376;DHT22;2202;50.866;12.750;2023-08-30T09:03:32;18.50;71.40
4376;DHT22;2202;50.866;12.750;2023-08-30T09:06:01;18.00;71.20
4376;DHT22;2202;50.866;12.750;2023-08-30T09:08:29;18.00;76.80
4376;DHT22;2202;50.866;12.750;2023-08-30T09:10:57;18.50;75.20
4376;DHT22;2202;50.866;12.750;2023-08-30T09:13:24;18.30;65.80
4376;DHT22;2202;50.866;12.750;2023-08-30T09:15:51;17.90;70.80
4376;DHT22;2202;50.866;12.750;2023-08-30T09:18:18;17.50;74.80
4376;DHT22;2202;50.866;12.750;2023-08-30T09:20:45;17.30;76.20
4376;DHT22;2202;50.866;12.750;2023-08-30T09:23:18;17.40;76.00
4376;DHT22;2202;50.866;12.750;2023-08-30T09:25:46;17.40;74.40
4376;DHT22;2202;50.866;12.750;2023-08-30T09:28:14;17.30;75.00
4376;DHT22;2202;50.866;12.750;2023-08-30T09:30:41;17.20;75.40
4376;DHT22;2202;50.866;12.750;2023-08-30T09:33:08;17.20;70.80
4376;DHT22;2202;50.866;12.750;2023-08-30T09:35:43;17.40;73.80
4376;DHT22;2202;50.866;12.750;2023-08-30T09:38:16;17.70;72.40
4376;DHT22;2202;50.866;12.750;2023-08-30T09:40:44;17.80;72.80
4376;DHT22;2202;50.866;12.750;2023-08-30T09:43:11;17.70;75.20
4376;DHT22;2202;50.866;12.750;2023-08-30T09:45:40;18.10;73.40
4376;DHT22;2202;50.866;12.750;2023-08-30T09:48:07;18.40;67.80
4376;DHT22;2202;50.866;12.750;2023-08-30T09:50:35;18.40;68.80
4376;DHT22;2202;50.866;12.750;2023-08-30T09:53:07;18.50;71.40
4376;DHT22;2202;50.866;12.750;2023-08-30T09:55:35;18.50;66.20
4376;DHT22;2202;50.866;12.750;2023-08-30T09:58:02;18.30;67.00
4376;DHT22;2202;50.866;12.750;2023-08-30T10:00:30;18.20;71.60
4376;DHT22;2202;50.866;12.750;2023-08-30T10:02:59;18.40;71.00
4376;DHT22;2202;50.866;12.750;2023-08-30T10:05:27;18.80;66.80
4376;DHT22;2202;50.866;12.750;2023-08-30T10:07:54;19.00;69.20
4376;DHT22;2202;50.866;12.750;2023-08-30T10:10:22;19.00;66.20
4376;DHT22;2202;50.866;12.750;2023-08-30T10:12:50;19.40;68.20
4376;DHT22;2202;50.866;12.750;2023-08-30T10:15:19;19.80;65.40
4376;DHT22;2202;50.866;12.750;2023-08-30T10:17:48;19.90;64.60
4376;DHT22;2202;50.866;12.750;2023-08-30T10:20:18;19.70;69.20
4376;DHT22;2202;50.866;12.750;2023-08-30T10:22:47;19.50;70.00
4376;DHT22;2202;50.866;12.750;2023-08-30T10:25:19;19.70;64.40
4376;DHT22;2202;50.866;12.750;2023-08-30T10:27:49;19.60;59.60
4376;DHT22;2202;50.866;12.750;2023-08-30T10:30:18;19.50;60.40
4376;DHT22;2202;50.866;12.750;2023-08-30T10:32:45;19.70;64.80
4376;DHT22;2202;50.866;12.750;2023-08-30T10:35:13;19.40;56.70
4376;DHT22;2202;50.866;12.750;2023-08-30T10:37:42;19.00;58.20
4376;DHT22;2202;50.866;12.750;2023-08-30T10:40:09;18.80;63.20
4376;DHT22;2202;50.866;12.750;2023-08-30T10:42:36;19.20;65.20
4376;DHT22;2202;50.866;12.750;2023-08-30T10:45:05;19.40;57.40
4376;DHT22;2202;50.866;12.750;2023-08-30T10:47:35;19.70;63.60
4376;DHT22;2202;50.866;12.750;2023-08-30T10:50:05;19.90;61.20
4376;DHT22;2202;50.866;12.750;2023-08-30T10:52:33;19.80;60.80
4376;DHT22;2202;50.866;12.750;2023-08-30T10:55:08;19.80;61.40
4376;DHT22;2202;50.866;12.750;2023-08-30T10:57:35;19.50;61.60
4376;DHT22;2202;50.866;12.750;2023-08-30T11:00:06;19.10;59.90
4376;DHT22;2202;50.866;12.750;2023-08-30T11:02:35;19.10;63.20
4376;DHT22;2202;50.866;12.750;2023-08-30T11:05:02;19.00;64.40
4376;DHT22;2202;50.866;12.750;2023-08-30T11:07:30;19.10;59.60
4376;DHT22;2202;50.866;12.750;2023-08-30T11:09:57;19.30;57.30
4376;DHT22;2202;50.866;12.750;2023-08-30T11:12:25;19.50;60.10
4376;DHT22;2202;50.866;12.750;2023-08-30T11:14:54;19.60;56.70
4376;DHT22;2202;50.866;12.750;2023-08-30T11:17:21;19.20;58.30
4376;DHT22;2202;50.866;12.750;2023-08-30T11:19:51;19.00;59.00
4376;DHT22;2202;50.866;12.750;2023-08-30T11:22:18;19.40;61.80
4376;DHT22;2202;50.866;12.750;2023-08-30T11:24:47;19.90;56.90
4376;DHT22;2202;50.866;12.750;2023-08-30T11:27:17;20.00;58.50
4376;DHT22;2202;50.866;12.750;2023-08-30T11:29:45;20.30;57.30
4376;DHT22;2202;50.866;12.750;2023-08-30T11:32:12;20.60;51.80
4376;DHT22;2202;50.866;12.750;2023-08-30T11:34:38;20.60;55.50
4376;DHT22;2202;50.866;12.750;2023-08-30T11:37:05;20.40;54.40
4376;DHT22;2202;50.866;12.750;2023-08-30T11:39:34;20.30;53.50
4376;DHT22;2202;50.866;12.750;2023-08-30T11:42:03;20.20;53.20
4376;DHT22;2202;50.866;12.750;2023-08-30T11:44:32;20.50;55.00
4376;DHT22;2202;50.866;12.750;2023-08-30T11:47:00;20.40;54.40
4376;DHT22;2202;50.866;12.750;2023-08-30T11:49:27;20.50;54.60
4376;DHT22;2202;50.866;12.750;2023-08-30T11:51:55;20.60;54.60
4376;DHT22;2202;50.866;12.750;2023-08-30T11:54:23;20.80;53.90
4376;DHT22;2202;50.866;12.750;2023-08-30T11:56:50;20.80;51.90
4376;DHT22;2202;50.866;12.750;2023-08-30T11:59:21;20.80;52.10
4376;DHT22;2202;50.866;12.750;2023-08-30T12:01:48;20.80;52.30
4376;DHT22;2202;50.866;12.750;2023-08-30T12:04:16;20.90;54.40
4376;DHT22;2202;50.866;12.750;2023-08-30T12:06:50;21.20;52.50
4376;DHT22;2202;50.866;12.750;2023-08-30T12:09:17;21.30;49.30
4376;DHT22;2202;50.866;12.750;2023-08-30T12:11:47;20.80;49.50
4376;DHT22;2202;50.866;12.750;2023-08-30T12:14:14;20.80;55.00
4376;DHT22;2202;50.866;12.750;2023-08-30T12:16:41;20.60;52.30
4376;DHT22;2202;50.866;12.750;2023-08-30T12:19:08;20.50;55.00
4376;DHT22;2202;50.866;12.750;2023-08-30T12:21:41;20.60;59.40
4376;DHT22;2202;50.866;12.750;2023-08-30T12:24:08;21.00;52.70
4376;DHT22;2202;50.866;12.750;2023-08-30T12:26:35;20.90;52.10
4376;DHT22;2202;50.866;12.750;2023-08-30T12:29:04;21.00;54.80
4376;DHT22;2202;50.866;12.750;2023-08-30T12:31:31;21.00;53.00
4376;DHT22;2202;50.866;12.750;2023-08-30T12:33:58;21.30;54.30
4376;DHT22;2202;50.866;12.750;2023-08-30T12:36:25;21.40;49.10
4376;DHT22;2202;50.866;12.750;2023-08-30T12:38:53;21.50;50.20
4376;DHT22;2202;50.866;12.750;2023-08-30T12:41:20;21.50;52.70
4376;DHT22;2202;50.866;12.750;2023-08-30T12:43:49;21.60;48.20
4376;DHT22;2202;50.866;12.750;2023-08-30T12:46:15;21.90;48.90
4376;DHT22;2202;50.866;12.750;2023-08-30T12:48:42;21.80;48.20
4376;DHT22;2202;50.866;12.750;2023-08-30T12:51:09;21.60;49.30
4376;DHT22;2202;50.866;12.750;2023-08-30T12:53:36;21.20;52.50
4376;DHT22;2202;50.866;12.750;2023-08-30T12:56:04;21.00;50.30
4376;DHT22;2202;50.866;12.750;2023-08-30T12:58:31;20.80;51.40
4376;DHT22;2202;50.866;12.750;2023-08-30T13:00:58;20.70;51.40
4376;DHT22;2202;50.866;12.750;2023-08-30T13:03:25;20.60;53.40
4376;DHT22;2202;50.866;12.750;2023-08-30T13:05:51;20.60;51.40
4376;DHT22;2202;50.866;12.750;2023-08-30T13:08:18;20.70;53.50
4376;DHT22;2202;50.866;12.750;2023-08-30T13:10:45;20.70;53.70
4376;DHT22;2202;50.866;12.750;2023-08-30T13:13:13;20.60;53.90
4376;DHT22;2202;50.866;12.750;2023-08-30T13:15:40;20.40;55.90
4376;DHT22;2202;50.866;12.750;2023-08-30T13:18:07;20.50;57.60
4376;DHT22;2202;50.866;12.750;2023-08-30T13:20:38;20.40;55.70
4376;DHT22;2202;50.866;12.750;2023-08-30T13:23:04;20.30;58.50
4376;DHT22;2202;50.866;12.750;2023-08-30T13:25:31;20.30;57.30
4376;DHT22;2202;50.866;12.750;2023-08-30T13:27:58;20.00;58.20
4376;DHT22;2202;50.866;12.750;2023-08-30T13:30:26;20.10;61.60
4376;DHT22;2202;50.866;12.750;2023-08-30T13:32:53;20.20;60.10
4376;DHT22;2202;50.866;12.750;2023-08-30T13:35:20;20.00;57.40
4376;DHT22;2202;50.866;12.750;2023-08-30T13:37:47;20.00;58.20
4376;DHT22;2202;50.866;12.750;2023-08-30T13:40:14;20.10;58.30
4376;DHT22;2202;50.866;12.750;2023-08-30T13:42:41;20.10;56.40
4376;DHT22;2202;50.866;12.750;2023-08-30T13:45:08;20.20;58.20
4376;DHT22;2202;50.866;12.750;2023-08-30T13:47:37;20.20;59.40
4376;DHT22;2202;50.866;12.750;2023-08-30T13:50:05;20.20;60.80
4376;DHT22;2202;50.866;12.750;2023-08-30T13:52:32;20.40;58.90
4376;DHT22;2202;50.866;12.750;2023-08-30T13:54:59;20.40;52.10
4376;DHT22;2202;50.866;12.750;2023-08-30T13:57:26;20.10;55.00
4376;DHT22;2202;50.866;12.750;2023-08-30T13:59:53;20.10;55.70
4376;DHT22;2202;50.866;12.750;2023-08-30T14:02:20;20.10;60.20
4376;DHT22;2202;50.866;12.750;2023-08-30T14:04:48;19.90;59.90
4376;DHT22;2202;50.866;12.750;2023-08-30T14:07:15;20.00;57.10
4376;DHT22;2202;50.866;12.750;2023-08-30T14:09:42;19.80;59.60
4376;DHT22;2202;50.866;12.750;2023-08-30T14:12:09;19.60;58.70
4376;DHT22;2202;50.866;12.750;2023-08-30T14:14:36;19.60;57.40
4376;DHT22;2202;50.866;12.750;2023-08-30T14:17:03;19.70;58.70
4376;DHT22;2202;50.866;12.750;2023-08-30T14:19:29;19.60;62.00
4376;DHT22;2202;50.866;12.750;2023-08-30T14:21:58;19.40;58.00
4376;DHT22;2202;50.866;12.750;2023-08-30T14:24:25;19.40;62.40
4376;DHT22;2202;50.866;12.750;2023-08-30T14:26:52;19.40;60.60
4376;DHT22;2202;50.866;12.750;2023-08-30T14:29:20;19.40;60.80
4376;DHT22;2202;50.866;12.750;2023-08-30T14:31:47;19.60;63.40
4376;DHT22;2202;50.866;12.750;2023-08-30T14:34:14;19.60;59.00
4376;DHT22;2202;50.866;12.750;2023-08-30T14:36:41;19.70;60.40
4376;DHT22;2202;50.866;12.750;2023-08-30T14:39:09;19.80;59.90
4376;DHT22;2202;50.866;12.750;2023-08-30T14:41:36;20.00;60.10
4376;DHT22;2202;50.866;12.750;2023-08-30T14:44:04;20.20;59.80
4376;DHT22;2202;50.866;12.750;2023-08-30T14:46:31;20.30;58.30
4376;DHT22;2202;50.866;12.750;2023-08-30T14:48:57;20.30;56.70
4376;DHT22;2202;50.866;12.750;2023-08-30T14:51:24;20.20;57.40
4376;DHT22;2202;50.866;12.750;2023-08-30T14:53:51;20.00;58.90
4376;DHT22;2202;50.866;12.750;2023-08-30T14:56:19;19.90;62.20
4376;DHT22;2202;50.866;12.750;2023-08-30T14:58:46;20.00;60.10
4376;DHT22;2202;50.866;12.750;2023-08-30T15:01:15;20.00;59.00
4376;DHT22;2202;50.866;12.750;2023-08-30T15:03:42;20.00;60.60
4376;DHT22;2202;50.866;12.750;2023-08-30T15:06:08;20.00;62.00
4376;DHT22;2202;50.866;12.750;2023-08-30T15:08:35;20.20;60.20
4376;DHT22;2202;50.866;12.750;2023-08-30T15:11:02;20.20;60.40
4376;DHT22;2202;50.866;12.750;2023-08-30T15:13:30;20.30;60.40
4376;DHT22;2202;50.866;12.750;2023-08-30T15:15:57;20.30;59.00
4376;DHT22;2202;50.866;12.750;2023-08-30T15:18:24;20.20;60.20
4376;DHT22;2202;50.866;12.750;2023-08-30T15:20:51;20.20;61.00
4376;DHT22;2202;50.866;12.750;2023-08-30T15:23:19;20.10;60.80
4376;DHT22;2202;50.866;12.750;2023-08-30T15:25:46;20.00;60.20
4376;DHT22;2202;50.866;12.750;2023-08-30T15:28:14;20.10;60.40
4376;DHT22;2202;50.866;12.750;2023-08-30T15:30:45;20.20;61.00
4376;DHT22;2202;50.866;12.750;2023-08-30T15:33:13;20.30;58.70
4376;DHT22;2202;50.866;12.750;2023-08-30T15:35:40;20.20;59.80
4376;DHT22;2202;50.866;12.750;2023-08-30T15:38:07;20.20;59.60
4376;DHT22;2202;50.866;12.750;2023-08-30T15:40:34;20.00;61.00
4376;DHT22;2202;50.866;12.750;2023-08-30T15:43:02;20.00;60.80
4376;DHT22;2202;50.866;12.750;2023-08-30T15:45:29;19.90;61.80
4376;DHT22;2202;50.866;12.750;2023-08-30T15:47:57;19.90;63.20